This is the latest recevied weather packets stored in our database for station/object N1SU-13. If no packets are shown the sender has not sent any weather packets the latest 10 day(s).
| Time | Temp. | Humidity | Pressure | Rain* | Wind** | Luminosity | Snow |
|---|---|---|---|---|---|---|---|
| 1777208502 | 3.89° C | 63% | 1008.6 hPa | - | - | - | - |
| 1777207836 | 3.89° C | 63% | 1008.5 hPa | - | - | - | - |
| 1777207245 | 3.89° C | 62% | - | - | - | - | - |
| 1777206639 | 3.89° C | 62% | 1008.5 hPa | - | - | - | - |
| 1777206004 | 2.22° C | 63% | 1008.7 hPa | - | - | - | - |
| 1777205426 | 2.22° C | 62% | 1008.9 hPa | - | - | - | - |
| 1777204799 | 3.89° C | 61% | 1008.6 hPa | - | - | - | - |
| 1777204125 | 3.33° C | 61% | 1008.6 hPa | - | - | - | - |
| 1777203478 | 3.89° C | 60% | 1008.7 hPa | - | - | - | - |
| 1777202893 | 4.44° C | 60% | 1008.5 hPa | - | - | - | - |
| 1777202275 | 4.44° C | 59% | 1008.6 hPa | - | - | - | - |
| 1777201706 | 4.44° C | 59% | 1008.4 hPa | - | - | - | - |
| 1777201051 | 3.89° C | 59% | 1008.5 hPa | - | - | - | - |
| 1777200366 | 3.33° C | 58% | 1008.6 hPa | - | - | - | - |
| 1777199800 | 4.44° C | 58% | 1008.4 hPa | - | - | - | - |
| 1777199758 | 4.44° C | 58% | 1008.4 hPa | - | - | - | - |
| 1777199233 | 5° C | 58% | 1008.3 hPa | - | - | - | - |
| 1777199105 | 3.89° C | 58% | 1008.4 hPa | - | - | - | - |
| 1777198404 | 3.89° C | 57% | 1008.5 hPa | - | - | - | - |
| 1777197791 | 5° C | 57% | 1008.4 hPa | - | - | - | - |
| 1777197176 | 3.89° C | 57% | 1008.6 hPa | - | - | - | - |
| 1777196555 | 5° C | 57% | 1008.5 hPa | - | - | - | - |
| 1777195890 | 5.56° C | 56% | 1008.5 hPa | - | - | - | - |
| 1777195297 | 5.56° C | 56% | 1008.5 hPa | - | - | - | - |
| 1777194698 | 4.44° C | 56% | 1008.6 hPa | - | - | - | - |
* Rain since midnight (hover to see other rain measurements)
** Current wind speed in m/s (hover to see current wind gust speed)